Nepton, Kentucky
Current Conditions -  °F | °C
As of 2:55 AM on Friday 31 Oct 2014 (Local Time) from KFGX Reporting Station
Scattered Clouds Scattered Clouds  
Wind Chill:   Ceiling: Unl
Heat Index:   Visibility: 10mi
Dew Point:   Wind: 3mph
Humidity: 86%   Direction: 170°S
Pressure: 30.03"   Gusts: NA
Location:  38.4071°N, 83.873°W
Report Text: KFGX 310655Z AUTO 17003KT 10SM SCT110 04/02 A3003 RMK AO2 T00440022
Loading
Personal Weather Stations






























Interactive Weather Map
Tropical Storm Tracking
New forecast layout! Learn more

10-Day Weather Forecast

Advertisements
Track Severe Weather on mobile